createdAt,value
2019-05-12T00:02:34.242Z,92.70
2019-05-12T00:07:39.351Z,93.30
2019-05-12T00:12:44.467Z,93.60
2019-05-12T00:17:51.051Z,93.90
2019-05-12T00:22:58.169Z,94.00
2019-05-12T00:28:03.207Z,93.50
2019-05-12T00:33:09.437Z,94.10
2019-05-12T00:38:14.728Z,94.30
2019-05-12T00:43:19.687Z,94.20
2019-05-12T00:48:24.668Z,94.00
2019-05-12T00:53:39.948Z,94.00
2019-05-12T00:58:38.268Z,93.90
2019-05-12T01:03:43.384Z,94.20
2019-05-12T01:08:48.468Z,94.40
2019-05-12T01:13:53.483Z,94.40
2019-05-12T01:18:58.689Z,94.40
2019-05-12T01:24:04.796Z,94.60
2019-05-12T01:29:09.848Z,94.30
2019-05-12T01:34:14.894Z,94.60
2019-05-12T01:39:19.852Z,94.70
2019-05-12T01:44:24.867Z,94.70
2019-05-12T01:49:29.807Z,94.80
2019-05-12T01:54:34.857Z,95.20
2019-05-12T01:59:39.887Z,94.90
2019-05-12T02:05:01.892Z,94.90
2019-05-12T02:10:09.423Z,95.20
2019-05-12T02:15:18.201Z,95.10
2019-05-12T02:20:22.808Z,94.80
2019-05-12T02:25:28.681Z,94.90
2019-05-12T02:30:34.227Z,95.10
2019-05-12T02:35:39.192Z,94.90
2019-05-12T02:40:44.883Z,95.00
2019-05-12T02:45:50.108Z,95.20
2019-05-12T02:50:56.119Z,95.40
2019-05-12T02:56:05.054Z,95.40
2019-05-12T03:01:11.107Z,95.50
2019-05-12T03:06:18.592Z,95.50
2019-05-12T03:11:24.827Z,95.70
2019-05-12T03:16:29.893Z,95.30
2019-05-12T03:21:35.491Z,95.20
2019-05-12T03:26:40.769Z,95.30
2019-05-12T03:31:48.480Z,95.30
2019-05-12T03:36:58.629Z,95.20
2019-05-12T03:41:59.999Z,95.30
2019-05-12T03:47:05.329Z,96.00
2019-05-12T03:52:10.273Z,96.10
2019-05-12T03:57:15.303Z,96.00
2019-05-12T04:02:20.374Z,96.50
2019-05-12T04:07:26.175Z,97.40
2019-05-12T04:12:34.339Z,97.40
2019-05-12T04:17:37.911Z,97.60
2019-05-12T04:22:44.705Z,98.00
2019-05-12T04:27:49.597Z,98.00
2019-05-12T04:32:55.358Z,98.40
2019-05-12T04:38:00.472Z,98.60
2019-05-12T04:43:07.001Z,98.70
2019-05-12T04:48:15.526Z,98.50
2019-05-12T04:53:18.712Z,98.60
2019-05-12T04:58:25.507Z,98.50
2019-05-12T05:03:30.335Z,98.60
2019-05-12T05:08:35.314Z,99.00
2019-05-12T05:13:40.324Z,99.00
2019-05-12T05:18:45.441Z,99.10
2019-05-12T05:23:50.443Z,99.20
2019-05-12T05:28:55.410Z,98.70
2019-05-12T05:34:00.479Z,99.20
2019-05-12T05:39:06.882Z,98.90
2019-05-12T05:44:13.867Z,98.90
2019-05-12T05:49:18.566Z,98.70
2019-05-12T05:54:31.420Z,98.90
2019-05-12T05:59:35.856Z,98.20
2019-05-12T06:04:39.035Z,98.30
2019-05-12T06:09:44.476Z,97.60
2019-05-12T06:14:55.339Z,97.10
2019-05-12T06:19:56.139Z,97.40
2019-05-12T06:25:01.115Z,97.60
2019-05-12T06:30:10.832Z,98.00
2019-05-12T06:35:15.886Z,98.40
2019-05-12T06:40:20.940Z,98.60
2019-05-12T06:45:28.432Z,98.70
2019-05-12T06:50:36.462Z,99.00
2019-05-12T06:55:39.598Z,98.90
2019-05-12T07:00:44.810Z,99.30
2019-05-12T07:05:49.747Z,99.30
2019-05-12T07:11:03.097Z,99.00
2019-05-12T07:16:03.718Z,99.20
2019-05-12T07:21:09.466Z,99.30
2019-05-12T07:26:19.499Z,99.30
2019-05-12T07:31:23.317Z,99.30
2019-05-12T07:36:30.611Z,99.20
2019-05-12T07:41:42.341Z,99.20
2019-05-12T07:46:49.209Z,99.10
2019-05-12T07:51:51.328Z,98.90
2019-05-12T07:56:56.363Z,98.70
2019-05-12T08:02:03.746Z,98.50
2019-05-12T08:07:08.063Z,98.80
2019-05-12T08:12:19.442Z,98.90
2019-05-12T08:17:20.668Z,99.20
2019-05-12T08:22:29.295Z,98.90
2019-05-12T08:27:34.027Z,98.90
2019-05-12T08:32:38.813Z,98.60
2019-05-12T08:37:44.257Z,98.60
2019-05-12T08:42:49.459Z,98.70
2019-05-12T08:47:54.671Z,98.30
2019-05-12T08:52:59.627Z,98.40
2019-05-12T08:58:04.871Z,98.40
2019-05-12T09:03:09.907Z,98.20
2019-05-12T09:08:15.219Z,98.30
2019-05-12T09:13:20.174Z,98.60
2019-05-12T09:18:33.519Z,97.90
2019-05-12T09:23:41.065Z,98.50
2019-05-12T09:28:49.237Z,98.10
2019-05-12T09:33:47.819Z,98.20
2019-05-12T09:39:00.936Z,98.10
2019-05-12T09:44:01.703Z,98.50
2019-05-12T09:49:06.151Z,98.30
2019-05-12T09:54:11.188Z,98.50
2019-05-12T09:59:22.660Z,98.80
2019-05-12T10:04:22.887Z,98.50
2019-05-12T10:09:27.967Z,98.50
2019-05-12T10:14:34.035Z,98.10
2019-05-12T10:19:38.969Z,98.30
2019-05-12T10:24:55.143Z,98.00
2019-05-12T10:29:50.483Z,98.20
2019-05-12T10:34:55.419Z,97.90
2019-05-12T10:40:03.570Z,97.70
2019-05-12T10:45:10.873Z,97.80
2019-05-12T10:50:17.323Z,97.70
2019-05-12T10:55:23.940Z,97.90
2019-05-12T11:00:29.288Z,97.70
2019-05-12T11:05:35.476Z,98.00
2019-05-12T11:10:40.434Z,97.40
2019-05-12T11:15:49.409Z,97.30
2019-05-12T11:20:54.744Z,97.60
2019-05-12T11:25:59.715Z,96.80
2019-05-12T11:31:04.719Z,97.90
2019-05-12T11:36:09.752Z,97.40
2019-05-12T11:41:16.087Z,97.70
2019-05-12T11:46:23.587Z,96.70
2019-05-12T11:51:30.515Z,96.80
2019-05-12T11:56:40.244Z,95.80
2019-05-12T12:01:45.601Z,95.40
2019-05-12T12:06:50.028Z,95.90
2019-05-12T12:12:02.253Z,95.30
2019-05-12T12:17:01.687Z,95.50
2019-05-12T12:22:06.779Z,95.20
2019-05-12T12:27:14.079Z,95.10
2019-05-12T12:32:20.344Z,95.80
2019-05-12T12:37:25.736Z,96.10
2019-05-12T12:42:36.936Z,94.80
2019-05-12T12:47:46.842Z,95.10
2019-05-12T12:52:48.579Z,93.90
2019-05-12T12:57:51.021Z,94.40
2019-05-12T13:02:56.063Z,93.70
2019-05-12T13:08:01.031Z,94.20
2019-05-12T13:13:06.075Z,94.60
2019-05-12T13:18:18.088Z,94.00
2019-05-12T13:23:18.734Z,95.20
2019-05-12T13:28:25.828Z,93.60
2019-05-12T13:33:30.506Z,94.30
2019-05-12T13:38:40.421Z,94.50
2019-05-12T13:43:43.672Z,93.60
2019-05-12T13:48:49.939Z,94.00
2019-05-12T13:53:55.312Z,94.60
2019-05-12T13:59:00.348Z,95.00
2019-05-12T14:04:05.436Z,94.60
2019-05-12T14:09:10.499Z,94.70
2019-05-12T14:14:15.773Z,95.20
2019-05-12T14:19:20.719Z,95.00
2019-05-12T14:24:25.757Z,93.70
2019-05-12T14:29:33.415Z,94.10
2019-05-12T14:34:38.471Z,93.10
2019-05-12T14:39:46.188Z,92.90
2019-05-12T14:44:50.219Z,93.30
2019-05-12T14:49:55.242Z,92.50
2019-05-12T14:55:00.357Z,89.00
2019-05-12T15:00:11.162Z,91.30
2019-05-12T15:05:15.715Z,88.80
2019-05-12T15:10:20.771Z,90.20
2019-05-12T15:15:25.871Z,91.10
2019-05-12T15:20:33.041Z,90.50
2019-05-12T15:25:37.772Z,87.20
2019-05-12T15:30:43.592Z,89.00
2019-05-12T15:35:48.935Z,87.50
2019-05-12T15:40:54.034Z,86.50
2019-05-12T15:45:59.702Z,87.30
2019-05-12T15:51:08.461Z,84.90
2019-05-12T15:56:16.508Z,86.60
2019-05-12T16:01:18.463Z,84.90
2019-05-12T16:06:23.505Z,86.20
2019-05-12T16:11:28.555Z,86.70
2019-05-12T16:16:42.216Z,88.40
2019-05-12T16:21:40.314Z,88.10
2019-05-12T16:26:51.792Z,86.70
2019-05-12T16:31:53.653Z,85.70
2019-05-12T16:36:58.815Z,86.20
2019-05-12T16:42:06.200Z,86.40
2019-05-12T16:47:13.237Z,86.00
2019-05-12T16:52:17.611Z,87.30
2019-05-12T16:57:22.560Z,88.10
2019-05-12T17:02:39.439Z,90.30
2019-05-12T17:07:34.468Z,89.70
2019-05-12T17:12:41.060Z,88.70
2019-05-12T17:17:50.831Z,89.40
2019-05-12T17:22:55.311Z,90.50
2019-05-12T17:28:03.634Z,92.50
2019-05-12T17:33:06.568Z,92.00
2019-05-12T17:38:19.670Z,90.20
2019-05-12T17:43:19.072Z,92.20
2019-05-12T17:48:25.375Z,93.10
2019-05-12T17:53:35.458Z,92.80
2019-05-12T17:58:43.986Z,91.50
2019-05-12T18:03:45.823Z,91.50
2019-05-12T18:08:50.288Z,92.90
2019-05-12T18:14:02.327Z,91.80
2019-05-12T18:19:03.335Z,92.80
2019-05-12T18:24:11.035Z,92.40
2019-05-12T18:29:15.252Z,92.50
2019-05-12T18:34:20.283Z,92.90
2019-05-12T18:39:25.309Z,93.00
2019-05-12T18:44:31.589Z,91.70
2019-05-12T18:49:36.890Z,93.50
2019-05-12T18:54:43.076Z,92.90
2019-05-12T18:59:54.401Z,94.80
2019-05-12T19:04:55.228Z,93.50
2019-05-12T19:10:00.171Z,93.30
2019-05-12T19:15:10.210Z,92.90
2019-05-12T19:20:15.846Z,95.50
2019-05-12T19:25:23.620Z,95.10
2019-05-12T19:30:27.987Z,92.80
2019-05-12T19:35:34.180Z,93.50
2019-05-12T19:40:39.825Z,92.40
2019-05-12T19:45:44.863Z,93.10
2019-05-12T19:50:52.755Z,92.90
2019-05-12T19:55:56.723Z,95.20
2019-05-12T20:01:03.609Z,96.10
2019-05-12T20:06:08.628Z,94.90
2019-05-12T20:11:14.368Z,94.00
2019-05-12T20:16:21.886Z,93.20
2019-05-12T20:21:28.327Z,96.60
2019-05-12T20:26:38.052Z,96.80
2019-05-12T20:31:44.582Z,97.40
2019-05-12T20:36:47.293Z,99.00
2019-05-12T20:41:54.604Z,99.80
2019-05-12T20:47:01.722Z,97.70
2019-05-12T20:52:09.696Z,94.90
2019-05-12T20:57:14.339Z,93.20
2019-05-12T21:02:23.387Z,98.70
2019-05-12T21:07:28.483Z,98.30
2019-05-12T21:12:34.415Z,99.20
2019-05-12T21:17:43.279Z,99.40
2019-05-12T21:22:46.056Z,99.60
2019-05-12T21:27:53.725Z,99.60
2019-05-12T21:33:01.251Z,98.90
2019-05-12T21:38:04.548Z,97.50
2019-05-12T21:43:09.759Z,96.60
2019-05-12T21:48:23.745Z,95.40
2019-05-12T21:53:23.874Z,95.10
2019-05-12T21:58:29.067Z,94.20
2019-05-12T22:03:34.099Z,94.00
2019-05-12T22:14:30.234Z,93.70
2019-05-12T22:41:48.456Z,93.30
2019-05-12T22:47:13.020Z,93.40
2019-05-12T22:52:28.820Z,93.40
2019-05-12T22:57:53.941Z,93.30
2019-05-12T23:03:14.747Z,93.20
2019-05-12T23:08:33.421Z,93.20
2019-05-12T23:13:53.305Z,93.60
2019-05-12T23:19:15.115Z,93.40
2019-05-12T23:24:39.230Z,93.30
2019-05-12T23:30:01.603Z,93.10
2019-05-12T23:35:15.059Z,93.10
2019-05-12T23:40:34.595Z,93.00
2019-05-12T23:51:23.589Z,92.60
2019-05-12T23:56:43.895Z,92.30
